Time;durP1;ratioP1;P1;durP2;ratioP2;P2;SDS_P1;SDS_P2;PMS_P1;PMS_P2;Temp;Humidity;BMP_temperature;BMP_pressure;BME280_temperature;BME280_humidity;BME280_pressure;Samples;Min_cycle;Max_cycle;Signal;HPM_P1;HPM_P2
2023/12/13 00:01:26;;;;;;;60.60;35.40;;;230.50;2252.80;;;;;;5013268;28;20022;-63
2023/12/13 00:03:53;;;;;;;57.58;35.53;;;230.50;2252.80;;;;;;5009249;28;20022;-64
2023/12/13 00:06:19;;;;;;;59.78;36.85;;;230.60;2252.80;;;;;;5010571;28;20033;-64
2023/12/13 00:08:45;;;;;;;62.05;37.53;;;230.60;2252.80;;;;;;5010325;28;20037;-64
2023/12/13 00:11:10;;;;;;;60.30;36.20;;;230.50;2252.80;;;;;;5013604;28;20034;-64
2023/12/13 00:13:36;;;;;;;62.60;37.15;;;230.50;2252.80;;;;;;5013280;28;20087;-64
2023/12/13 00:16:02;;;;;;;61.53;36.17;;;230.50;2252.80;;;;;;5012376;28;20030;-66
2023/12/13 00:18:28;;;;;;;62.25;36.97;;;230.50;2252.80;;;;;;5016288;28;20572;-65
2023/12/13 00:20:54;;;;;;;60.15;35.55;;;230.60;2252.80;;;;;;5010781;28;20040;-79
2023/12/13 00:23:20;;;;;;;58.25;36.22;;;230.60;2252.80;;;;;;5014838;28;20517;-67
2023/12/13 00:25:46;;;;;;;60.30;35.55;;;230.70;2252.80;;;;;;5017196;28;20046;-67
2023/12/13 00:28:11;;;;;;;58.92;35.58;;;230.80;2252.80;;;;;;5016832;28;20100;-65
2023/12/13 00:30:37;;;;;;;55.67;33.53;;;230.80;2252.80;;;;;;5017087;28;20022;-67
2023/12/13 00:33:03;;;;;;;58.20;33.95;;;230.80;2252.80;;;;;;5015498;28;20029;-68
2023/12/13 00:35:28;;;;;;;56.50;34.47;;;230.80;2252.80;;;;;;5016456;28;20034;-69
2023/12/13 00:37:54;;;;;;;60.42;36.03;;;230.80;2252.80;;;;;;5034730;28;20101;-65
2023/12/13 00:40:22;;;;;;;63.40;39.10;;;230.60;2252.80;;;;;;5031404;28;20026;-64
2023/12/13 00:42:48;;;;;;;69.65;40.10;;;230.60;2252.80;;;;;;5017493;28;20018;-65
2023/12/13 00:45:14;;;;;;;69.57;41.35;;;230.50;2252.80;;;;;;5013426;28;20124;-64
2023/12/13 00:47:40;;;;;;;67.50;41.28;;;230.50;2252.80;;;;;;5023598;28;20037;-65
2023/12/13 00:50:07;;;;;;;71.32;41.47;;;230.50;2252.80;;;;;;5015187;28;20462;-63
2023/12/13 00:52:33;;;;;;;68.57;41.42;;;230.50;2252.80;;;;;;5027626;28;20021;-64
2023/12/13 00:55:04;;;;;;;66.72;39.85;;;230.50;2252.80;;;;;;5027776;28;20121;-64
2023/12/13 00:57:33;;;;;;;63.85;39.42;;;230.60;2252.80;;;;;;5011225;28;20049;-64
2023/12/13 00:59:59;;;;;;;62.90;37.88;;;230.70;2252.80;;;;;;5017343;28;20033;-63
2023/12/13 01:02:27;;;;;;;59.95;37.13;;;230.80;2252.80;;;;;;5014418;28;20026;-64
2023/12/13 01:04:52;;;;;;;61.63;37.42;;;230.80;2252.80;;;;;;5013467;28;20064;-64
2023/12/13 01:07:18;;;;;;;58.55;36.25;;;230.80;2252.80;;;;;;5029320;28;20499;-64
2023/12/13 01:09:44;;;;;;;60.80;37.58;;;230.80;2252.80;;;;;;5031942;28;20029;-63
2023/12/13 01:12:10;;;;;;;55.83;35.50;;;230.80;2252.80;;;;;;5032143;28;20028;-63
2023/12/13 01:14:35;;;;;;;53.65;33.55;;;230.70;2252.80;;;;;;5013203;28;20030;-64
2023/12/13 01:17:01;;;;;;;54.25;31.70;;;230.70;2252.80;;;;;;5013722;28;20025;-64
2023/12/13 01:19:27;;;;;;;54.20;33.42;;;230.60;2252.80;;;;;;5013495;28;20454;-62
2023/12/13 01:21:53;;;;;;;58.63;35.35;;;230.60;2252.80;;;;;;5012887;28;20116;-63
2023/12/13 01:24:19;;;;;;;65.18;39.42;;;230.60;2252.80;;;;;;5013455;28;20026;-65
2023/12/13 01:26:44;;;;;;;63.00;37.97;;;230.60;2252.80;;;;;;5013305;28;20076;-64
2023/12/13 01:29:10;;;;;;;67.80;39.42;;;230.50;2252.80;;;;;;5013216;28;20103;-63
2023/12/13 01:31:36;;;;;;;70.18;42.20;;;230.50;2252.80;;;;;;5013169;28;20041;-62
2023/12/13 01:34:03;;;;;;;68.50;42.95;;;230.50;2252.80;;;;;;5014288;28;20034;-64
2023/12/13 01:36:28;;;;;;;66.85;39.65;;;230.40;2252.80;;;;;;5019559;28;20024;-63
2023/12/13 01:38:54;;;;;;;67.45;39.15;;;230.40;2252.80;;;;;;5013529;28;20026;-64
2023/12/13 01:41:20;;;;;;;62.38;38.33;;;205.70;2252.80;;;;;;5020787;28;20021;-63
2023/12/13 01:43:46;;;;;;;65.00;37.83;;;205.70;2252.80;;;;;;5030167;28;20389;-64
2023/12/13 01:46:13;;;;;;;66.28;39.13;;;205.70;2252.80;;;;;;5030431;28;20096;-65
2023/12/13 01:48:39;;;;;;;61.70;38.03;;;205.70;2252.80;;;;;;5015249;28;20112;-63
2023/12/13 01:51:06;;;;;;;63.92;38.85;;;230.40;2252.80;;;;;;5009735;28;20022;-63
2023/12/13 01:53:34;;;;;;;65.43;39.75;;;230.40;2252.80;;;;;;5015167;28;20033;-64
2023/12/13 01:56:01;;;;;;;66.40;39.03;;;230.40;2252.80;;;;;;5031588;28;20040;-64
2023/12/13 01:58:27;;;;;;;65.88;39.88;;;230.40;2252.80;;;;;;5031266;28;20072;-64
2023/12/13 02:00:55;;;;;;;65.38;40.00;;;230.40;2252.80;;;;;;5008565;28;20041;-63
2023/12/13 02:03:22;;;;;;;66.20;39.22;;;230.40;2252.80;;;;;;5013083;28;20030;-65
2023/12/13 02:05:51;;;;;;;73.35;38.88;;;230.40;2252.80;;;;;;5010329;28;20025;-64
2023/12/13 02:08:17;;;;;;;63.53;37.22;;;230.40;2252.80;;;;;;5013048;28;20026;-65
2023/12/13 02:10:43;;;;;;;62.05;35.92;;;230.40;2252.80;;;;;;5008535;28;20037;-64
2023/12/13 02:13:09;;;;;;;65.45;35.90;;;230.40;2252.80;;;;;;5012932;28;20022;-64
2023/12/13 02:15:35;;;;;;;58.00;34.28;;;230.40;2252.80;;;;;;5013246;28;20101;-64
2023/12/13 02:18:02;;;;;;;53.92;33.45;;;230.40;2252.80;;;;;;5012786;28;20018;-64
2023/12/13 02:20:28;;;;;;;56.20;33.92;;;230.50;2252.80;;;;;;5018771;28;20510;-63
2023/12/13 02:22:53;;;;;;;53.03;32.85;;;230.50;2252.80;;;;;;5015439;28;20022;-64
2023/12/13 02:25:32;;;;;;;54.13;33.53;;;230.60;2252.80;;;;;;5012570;28;20026;-64
2023/12/13 02:27:57;;;;;;;51.97;32.72;;;230.60;2252.80;;;;;;5009413;28;20085;-64
2023/12/13 02:30:24;;;;;;;57.22;34.47;;;230.80;2252.80;;;;;;5012393;28;20114;-63
2023/12/13 02:32:50;;;;;;;56.55;34.00;;;230.80;2252.80;;;;;;5011889;28;20053;-63
2023/12/13 02:35:16;;;;;;;59.05;35.95;;;230.80;2252.80;;;;;;5012429;28;20100;-63
2023/12/13 02:37:48;;;;;;;58.35;35.00;;;230.70;2252.80;;;;;;5012354;28;20561;-64
2023/12/13 02:40:14;;;;;;;58.22;33.60;;;230.60;2252.80;;;;;;5009437;28;20410;-64
2023/12/13 02:42:40;;;;;;;59.38;34.85;;;230.60;2252.80;;;;;;5007553;28;20093;-63
2023/12/13 02:45:08;;;;;;;59.95;35.90;;;230.60;2252.80;;;;;;5002617;28;20486;-64
2023/12/13 02:47:34;;;;;;;60.28;35.83;;;230.60;2252.80;;;;;;5008048;28;20029;-64
2023/12/13 02:50:00;;;;;;;55.08;35.08;;;230.60;2252.80;;;;;;5032054;28;20048;-63
2023/12/13 02:52:25;;;;;;;59.17;35.28;;;230.60;2252.80;;;;;;5014084;28;20140;-64
2023/12/13 02:54:51;;;;;;;62.38;37.45;;;230.60;2252.80;;;;;;5032144;28;20037;-64
2023/12/13 02:57:17;;;;;;;59.17;36.55;;;230.60;2252.80;;;;;;5021523;28;20029;-64
2023/12/13 02:59:43;;;;;;;58.55;34.63;;;230.60;2252.80;;;;;;5003108;28;20025;-64
2023/12/13 03:02:09;;;;;;;56.13;34.47;;;230.60;2252.80;;;;;;5012027;28;20108;-65
2023/12/13 03:04:34;;;;;;;57.58;36.78;;;230.60;2252.80;;;;;;5012055;28;20069;-63
2023/12/13 03:07:00;;;;;;;64.25;37.30;;;230.60;2252.80;;;;;;5012171;28;20033;-64
2023/12/13 03:09:26;;;;;;;56.60;35.60;;;230.60;2252.80;;;;;;5012195;28;20481;-63
2023/12/13 03:11:51;;;;;;;54.08;33.03;;;230.60;2252.80;;;;;;5012138;28;20026;-63
2023/12/13 03:14:17;;;;;;;56.65;34.60;;;230.70;2252.80;;;;;;5009513;28;20034;-63
2023/12/13 03:16:43;;;;;;;53.90;32.10;;;230.70;2252.80;;;;;;5000026;28;20026;-65
2023/12/13 03:19:08;;;;;;;51.40;32.22;;;230.70;2252.80;;;;;;5011927;28;20123;-65
2023/12/13 03:21:34;;;;;;;52.50;31.38;;;230.70;2252.80;;;;;;5011853;28;20030;-63
2023/12/13 03:24:00;;;;;;;55.35;31.90;;;230.60;2252.80;;;;;;5011755;28;20034;-64
2023/12/13 03:26:25;;;;;;;56.75;32.90;;;230.60;2252.80;;;;;;5011558;28;20029;-64
2023/12/13 03:28:52;;;;;;;52.65;30.38;;;230.60;2252.80;;;;;;5011578;28;20034;-63
2023/12/13 03:31:17;;;;;;;48.33;29.65;;;230.60;2252.80;;;;;;5006038;28;20029;-63
2023/12/13 03:33:43;;;;;;;47.45;28.55;;;230.60;2252.80;;;;;;5004960;28;20045;-63
2023/12/13 03:36:16;;;;;;;43.85;27.30;;;230.70;2252.80;;;;;;5011439;28;20486;-64
2023/12/13 03:38:44;;;;;;;40.60;25.23;;;230.70;2252.80;;;;;;5010575;28;20061;-64
2023/12/13 03:41:09;;;;;;;38.13;23.52;;;230.80;2252.80;;;;;;5011686;28;20024;-63
2023/12/13 03:43:35;;;;;;;38.53;23.20;;;230.80;2252.80;;;;;;5011958;28;20022;-63
2023/12/13 03:46:01;;;;;;;36.08;24.08;;;230.90;2252.80;;;;;;5015167;28;20533;-64
2023/12/13 03:48:27;;;;;;;36.58;23.02;;;230.90;2252.80;;;;;;5017654;28;20076;-63
2023/12/13 03:50:53;;;;;;;33.30;21.50;;;231.00;2252.80;;;;;;5012309;28;20104;-66
2023/12/13 03:53:18;;;;;;;37.35;23.02;;;231.00;2252.80;;;;;;5025064;28;20049;-64
2023/12/13 03:55:44;;;;;;;36.53;22.48;;;231.00;2252.80;;;;;;5015319;28;20061;-63
2023/12/13 03:58:10;;;;;;;38.13;22.23;;;231.00;2252.80;;;;;;5027266;28;20430;-63
2023/12/13 04:00:35;;;;;;;37.92;23.30;;;231.00;2252.80;;;;;;5035165;28;20446;-63
2023/12/13 04:03:01;;;;;;;37.67;24.00;;;231.00;2252.80;;;;;;5035074;28;20033;-64
2023/12/13 04:05:28;;;;;;;37.28;23.45;;;231.00;2252.80;;;;;;5035217;28;20060;-64
2023/12/13 04:07:54;;;;;;;38.30;24.40;;;231.00;2252.80;;;;;;5026528;28;20026;-63
2023/12/13 04:10:20;;;;;;;40.33;23.00;;;230.90;2252.80;;;;;;5013786;28;20109;-63
2023/12/13 04:12:45;;;;;;;40.42;23.27;;;230.90;2252.80;;;;;;5035144;28;20097;-64
2023/12/13 04:15:11;;;;;;;38.22;23.67;;;230.90;2252.80;;;;;;5018877;28;20053;-64
2023/12/13 04:17:37;;;;;;;37.75;21.52;;;230.90;2252.80;;;;;;5015039;28;20022;-63
2023/12/13 04:20:04;;;;;;;36.05;21.92;;;230.80;2252.80;;;;;;5015118;28;20034;-63
2023/12/13 04:22:30;;;;;;;35.92;21.95;;;230.80;2252.80;;;;;;5015227;28;20109;-64
2023/12/13 04:24:55;;;;;;;36.60;20.30;;;230.80;2252.80;;;;;;5011968;28;20137;-64
2023/12/13 04:27:21;;;;;;;33.10;20.70;;;230.80;2252.80;;;;;;5004677;28;20536;-63
2023/12/13 04:29:47;;;;;;;31.92;20.45;;;230.80;2252.80;;;;;;5014762;28;20030;-64
2023/12/13 04:32:12;;;;;;;33.83;20.92;;;230.80;2252.80;;;;;;5015071;28;20149;-64
2023/12/13 04:34:38;;;;;;;32.70;20.92;;;230.80;2252.80;;;;;;5015081;28;20128;-63
2023/12/13 04:37:04;;;;;;;36.15;20.95;;;230.90;2252.80;;;;;;5014984;28;20100;-64
2023/12/13 04:39:29;;;;;;;37.85;22.33;;;230.80;2252.80;;;;;;5014702;28;20022;-63
2023/12/13 04:41:55;;;;;;;34.30;21.25;;;230.80;2252.80;;;;;;5012494;28;20030;-63
2023/12/13 04:44:21;;;;;;;33.72;20.77;;;230.80;2252.80;;;;;;5003219;28;20496;-63
2023/12/13 04:46:46;;;;;;;32.67;20.58;;;230.80;2252.80;;;;;;5014687;28;20053;-64
2023/12/13 04:49:12;;;;;;;36.58;21.48;;;230.80;2252.80;;;;;;5001359;28;20117;-64
2023/12/13 04:51:38;;;;;;;36.55;21.63;;;230.80;2252.80;;;;;;5014437;28;20501;-64
2023/12/13 04:54:04;;;;;;;36.45;20.35;;;230.90;2252.80;;;;;;5013980;28;20038;-64
2023/12/13 04:56:29;;;;;;;33.35;20.25;;;230.80;2252.80;;;;;;5013051;28;20041;-64
2023/12/13 04:58:55;;;;;;;28.83;19.48;;;230.80;2252.80;;;;;;5013930;28;20030;-63
2023/12/13 05:01:21;;;;;;;32.38;20.52;;;230.80;2252.80;;;;;;5014532;28;20068;-64
2023/12/13 05:03:46;;;;;;;36.25;21.10;;;230.90;2252.80;;;;;;5014135;28;20022;-65
2023/12/13 05:06:12;;;;;;;32.35;20.08;;;230.90;2252.80;;;;;;5005965;28;20031;-64
2023/12/13 05:08:38;;;;;;;32.10;20.27;;;230.90;2252.80;;;;;;5008828;28;20475;-64
2023/12/13 05:11:04;;;;;;;33.85;20.40;;;230.90;2252.80;;;;;;5014264;28;20478;-63
2023/12/13 05:13:29;;;;;;;29.77;18.98;;;230.90;2252.80;;;;;;5013987;28;20026;-64
2023/12/13 05:15:55;;;;;;;28.38;17.50;;;230.90;2252.80;;;;;;5013933;28;20097;-63
2023/12/13 05:18:21;;;;;;;26.77;18.30;;;230.90;2252.80;;;;;;5013668;28;20073;-63
2023/12/13 05:20:49;;;;;;;26.00;16.60;;;231.00;2252.80;;;;;;5013449;28;20447;-64
2023/12/13 05:23:14;;;;;;;27.25;15.98;;;231.00;2252.80;;;;;;5011432;28;20029;-63
2023/12/13 05:25:40;;;;;;;27.60;15.35;;;231.00;2252.80;;;;;;5014074;28;20025;-64
2023/12/13 05:28:06;;;;;;;24.42;15.48;;;231.00;2252.80;;;;;;5013854;28;20026;-64
2023/12/13 05:30:32;;;;;;;22.92;14.82;;;231.00;2252.80;;;;;;5021579;28;20071;-63
2023/12/13 05:32:57;;;;;;;24.08;14.43;;;231.00;2252.80;;;;;;5034226;28;20025;-63
2023/12/13 05:35:23;;;;;;;26.25;15.98;;;231.00;2252.80;;;;;;5019392;28;20072;-64
2023/12/13 05:37:49;;;;;;;23.33;14.73;;;231.00;2252.80;;;;;;5018431;28;20030;-69
2023/12/13 05:40:15;;;;;;;27.05;15.65;;;231.00;2252.80;;;;;;5010677;28;20030;-69
2023/12/13 05:42:40;;;;;;;24.92;15.20;;;231.00;2252.80;;;;;;5011017;28;20066;-66
2023/12/13 05:45:06;;;;;;;25.85;16.33;;;230.90;2252.80;;;;;;5014457;28;20038;-63
2023/12/13 05:47:32;;;;;;;27.50;16.40;;;230.90;2252.80;;;;;;5013654;28;20033;-64
2023/12/13 05:49:58;;;;;;;29.48;16.67;;;230.60;2252.80;;;;;;5014193;28;20805;-64
2023/12/13 05:52:24;;;;;;;24.08;15.80;;;230.80;2252.80;;;;;;5012199;28;20037;-63
2023/12/13 05:54:49;;;;;;;27.30;17.58;;;230.80;2252.80;;;;;;5012691;28;20034;-63
2023/12/13 05:57:15;;;;;;;25.05;15.68;;;230.80;2252.80;;;;;;5010578;28;20017;-64
2023/12/13 05:59:42;;;;;;;27.27;16.42;;;230.80;2252.80;;;;;;5008388;28;20029;-63
2023/12/13 06:02:08;;;;;;;23.05;14.35;;;230.80;2252.80;;;;;;5013757;28;20033;-63
2023/12/13 06:04:33;;;;;;;24.98;14.93;;;230.80;2252.80;;;;;;5011123;28;20049;-63
2023/12/13 06:06:59;;;;;;;23.55;14.88;;;230.90;2252.80;;;;;;5007482;28;20065;-62
2023/12/13 06:09:25;;;;;;;22.48;15.10;;;230.90;2252.80;;;;;;5020028;28;20433;-63
2023/12/13 06:11:51;;;;;;;25.88;15.98;;;230.90;2252.80;;;;;;5012729;28;20022;-63
2023/12/13 06:14:17;;;;;;;22.40;14.05;;;230.90;2252.80;;;;;;5006131;28;20061;-64
2023/12/13 06:16:43;;;;;;;34.58;22.75;;;230.90;2252.80;;;;;;5007171;28;20079;-64
2023/12/13 06:19:09;;;;;;;60.72;37.90;;;230.90;2252.80;;;;;;5008512;28;20037;-64
2023/12/13 06:21:34;;;;;;;55.47;36.90;;;230.90;2252.80;;;;;;5013823;28;20025;-64
2023/12/13 06:24:02;;;;;;;70.63;50.45;;;230.90;2252.80;;;;;;5019897;28;20498;-63
2023/12/13 06:26:28;;;;;;;1997.20;794.53;;;231.00;2252.80;;;;;;5012312;28;20034;-63
2023/12/13 06:28:55;;;;;;;900.80;395.35;;;231.00;2252.80;;;;;;5012492;28;20030;-63
2023/12/13 06:31:20;;;;;;;319.45;130.55;;;231.00;2252.80;;;;;;5012518;28;20025;-63
2023/12/13 06:33:46;;;;;;;122.45;52.83;;;231.00;2252.80;;;;;;5012263;28;20034;-63
2023/12/13 06:36:12;;;;;;;104.32;52.53;;;231.10;2252.80;;;;;;5014957;28;20033;-63
2023/12/13 06:38:37;;;;;;;344.83;184.50;;;231.10;2252.80;;;;;;5012989;28;20037;-63
2023/12/13 06:41:03;;;;;;;464.85;263.77;;;231.20;2252.80;;;;;;5013349;28;20040;-63
2023/12/13 06:43:29;;;;;;;356.20;180.40;;;231.20;2252.80;;;;;;5012479;28;20540;-64
2023/12/13 06:45:55;;;;;;;271.40;132.88;;;256.00;2252.80;;;;;;5011592;28;20517;-65
2023/12/13 06:48:20;;;;;;;177.43;89.43;;;256.00;2252.80;;;;;;5006765;28;20033;-63
2023/12/13 06:50:47;;;;;;;61.63;42.33;;;256.00;2252.80;;;;;;5010526;28;20384;-63
2023/12/13 06:53:13;;;;;;;66.05;45.63;;;256.10;2252.80;;;;;;5014567;28;20025;-63
2023/12/13 06:55:39;;;;;;;72.28;48.28;;;256.10;2252.80;;;;;;5020727;28;20388;-63
2023/12/13 06:58:06;;;;;;;82.97;58.35;;;256.10;2252.80;;;;;;5012791;28;20376;-63
2023/12/13 07:00:31;;;;;;;63.15;46.15;;;256.10;2252.80;;;;;;5012700;28;20037;-64
2023/12/13 07:02:57;;;;;;;62.45;45.15;;;256.10;2252.80;;;;;;5011093;28;20045;-62
2023/12/13 07:05:23;;;;;;;90.53;60.78;;;256.10;2252.80;;;;;;4994047;28;20491;-64
2023/12/13 07:07:48;;;;;;;80.50;51.97;;;256.20;2252.80;;;;;;5010360;28;20062;-63
2023/12/13 07:10:15;;;;;;;80.38;48.83;;;256.20;2252.80;;;;;;5005009;28;20044;-63
2023/12/13 07:12:41;;;;;;;75.97;44.65;;;256.30;2252.80;;;;;;5006000;28;20101;-64
2023/12/13 07:15:08;;;;;;;75.32;46.67;;;256.40;2252.80;;;;;;5013149;28;20102;-67
2023/12/13 07:17:33;;;;;;;76.43;45.72;;;256.40;2252.80;;;;;;5009530;28;20093;-62
2023/12/13 07:19:59;;;;;;;75.43;45.78;;;256.30;2252.80;;;;;;5005747;28;20085;-66
2023/12/13 07:22:25;;;;;;;74.13;46.47;;;256.40;2252.80;;;;;;5013920;28;20017;-65
2023/12/13 07:24:51;;;;;;;81.93;48.78;;;256.40;2252.80;;;;;;5009593;28;20038;-62
2023/12/13 07:27:16;;;;;;;80.40;47.63;;;256.50;2252.80;;;;;;4994856;28;20130;-64
2023/12/13 07:29:43;;;;;;;80.35;49.47;;;256.50;2252.80;;;;;;5003730;28;20029;-64
2023/12/13 07:32:11;;;;;;;80.63;51.65;;;256.40;2252.80;;;;;;5024108;28;20167;-64
2023/12/13 07:34:36;;;;;;;97.05;58.47;;;256.40;2252.80;;;;;;5009948;28;20030;-63
2023/12/13 07:37:02;;;;;;;99.43;58.90;;;256.30;2252.80;;;;;;5016336;28;20100;-63
2023/12/13 07:39:30;;;;;;;90.80;55.53;;;256.30;2252.80;;;;;;5017300;28;20083;-69
2023/12/13 07:41:57;;;;;;;116.65;64.88;;;256.30;2252.80;;;;;;5017454;28;20010;-67
2023/12/13 07:44:22;;;;;;;186.50;101.35;;;256.40;2252.80;;;;;;5026158;28;20072;-64
2023/12/13 07:46:48;;;;;;;168.90;90.95;;;256.30;2252.80;;;;;;5029207;28;20045;-64
2023/12/13 07:49:14;;;;;;;153.50;83.18;;;256.30;2252.80;;;;;;5021057;28;20034;-64
2023/12/13 07:51:39;;;;;;;124.45;71.90;;;256.20;2252.80;;;;;;5012652;28;20037;-63
2023/12/13 07:54:05;;;;;;;132.10;78.40;;;256.20;2252.80;;;;;;5011847;28;20037;-63
2023/12/13 07:56:31;;;;;;;118.63;66.60;;;256.30;2252.80;;;;;;5030267;28;20022;-63
2023/12/13 07:58:57;;;;;;;91.10;56.33;;;256.30;2252.80;;;;;;5024559;28;20029;-74
2023/12/13 08:01:22;;;;;;;101.35;58.58;;;256.30;2252.80;;;;;;5026684;28;20092;-63
2023/12/13 08:03:49;;;;;;;112.28;70.30;;;256.40;2252.80;;;;;;5008319;28;20040;-63
2023/12/13 08:06:18;;;;;;;113.53;67.63;;;256.40;2252.80;;;;;;5015717;28;20025;-62
2023/12/13 08:08:44;;;;;;;123.20;76.43;;;256.40;2252.80;;;;;;5019436;28;20067;-63
2023/12/13 08:11:11;;;;;;;104.25;65.10;;;256.50;2252.80;;;;;;5011771;28;20021;-63
2023/12/13 08:13:37;;;;;;;96.57;59.75;;;256.60;2252.80;;;;;;5010998;28;20053;-63
2023/12/13 08:16:03;;;;;;;107.72;68.20;;;256.60;2252.80;;;;;;5011947;28;20037;-65
2023/12/13 08:18:28;;;;;;;108.65;65.30;;;256.60;2252.80;;;;;;5011602;28;20034;-63
2023/12/13 08:20:54;;;;;;;101.53;64.63;;;256.60;2252.80;;;;;;5010103;28;20471;-65
2023/12/13 08:23:20;;;;;;;119.38;71.15;;;256.70;2252.80;;;;;;5017106;28;20021;-60
2023/12/13 08:25:45;;;;;;;121.95;71.93;;;256.70;2252.80;;;;;;5022098;28;20029;-66
2023/12/13 08:28:11;;;;;;;129.85;75.85;;;256.60;2252.80;;;;;;5029186;28;20051;-64
2023/12/13 08:30:37;;;;;;;114.57;71.50;;;256.60;2252.80;;;;;;5013839;28;20735;-63
2023/12/13 08:33:02;;;;;;;119.82;77.63;;;256.50;2252.80;;;;;;5016464;28;20029;-63
2023/12/13 08:35:28;;;;;;;140.15;85.97;;;256.50;2252.80;;;;;;5014052;28;20042;-62
2023/12/13 08:37:54;;;;;;;60.65;38.95;;;256.60;2252.80;;;;;;5016329;28;20467;-69
2023/12/13 08:40:20;;;;;;;60.10;38.35;;;256.50;2252.80;;;;;;5015313;28;20036;-63
2023/12/13 08:42:46;;;;;;;58.25;34.03;;;256.60;2252.80;;;;;;5033483;28;20018;-65
2023/12/13 08:45:13;;;;;;;29.80;19.67;;;256.70;2252.80;;;;;;5036219;28;21438;-63
2023/12/13 08:47:39;;;;;;;24.35;16.33;;;256.60;2252.80;;;;;;5033732;28;20052;-64
2023/12/13 08:50:06;;;;;;;25.90;16.88;;;256.60;2252.80;;;;;;5020278;28;20537;-63
2023/12/13 08:52:32;;;;;;;26.92;18.13;;;256.50;2252.80;;;;;;5021630;28;20022;-64
2023/12/13 08:54:58;;;;;;;27.88;19.25;;;256.50;2252.80;;;;;;5039273;28;20068;-64
2023/12/13 08:57:23;;;;;;;23.42;16.67;;;256.40;2252.80;;;;;;5016455;28;20052;-63
2023/12/13 08:59:49;;;;;;;30.65;20.02;;;256.40;2252.80;;;;;;5015012;28;20478;-62
2023/12/13 09:02:15;;;;;;;26.55;19.08;;;256.60;2252.80;;;;;;5024004;28;20522;-64
2023/12/13 09:04:41;;;;;;;24.50;17.55;;;256.70;2252.80;;;;;;5014409;28;20053;-65
2023/12/13 09:07:07;;;;;;;23.00;16.02;;;256.70;2252.80;;;;;;5026485;28;20057;-64
2023/12/13 09:09:32;;;;;;;30.00;20.95;;;256.80;2252.80;;;;;;5014905;28;20025;-64
2023/12/13 09:11:59;;;;;;;33.67;23.45;;;256.80;2252.80;;;;;;5014709;28;20076;-63
2023/12/13 09:14:25;;;;;;;37.55;25.90;;;256.90;2252.80;;;;;;5014145;28;20034;-62
2023/12/13 09:16:51;;;;;;;42.25;28.42;;;256.90;2252.80;;;;;;4997267;28;20073;-61
2023/12/13 09:19:17;;;;;;;49.55;33.30;;;281.60;2278.40;;;;;;5015371;28;20105;-62
2023/12/13 09:21:43;;;;;;;29.92;19.95;;;281.60;2278.40;;;;;;5020920;28;20034;-69
2023/12/13 09:24:08;;;;;;;35.17;23.77;;;281.70;2278.40;;;;;;5020430;28;20041;-61
2023/12/13 09:26:35;;;;;;;19.55;13.25;;;281.70;2278.40;;;;;;5007343;28;20304;-63
2023/12/13 09:29:02;;;;;;;34.50;21.23;;;281.70;2278.40;;;;;;5016740;28;20033;-62
2023/12/13 09:31:28;;;;;;;33.17;21.75;;;281.70;2278.40;;;;;;5036806;28;20588;-63
2023/12/13 09:33:54;;;;;;;26.88;18.67;;;281.70;2278.40;;;;;;5005807;28;20038;-62
2023/12/13 09:36:19;;;;;;;59.65;42.65;;;281.80;2278.40;;;;;;5013536;28;20026;-63
2023/12/13 09:38:46;;;;;;;43.67;30.98;;;281.80;2278.40;;;;;;5009009;28;20026;-64
2023/12/13 09:41:18;;;;;;;47.67;32.42;;;281.80;2278.40;;;;;;5016451;28;20028;-63
2023/12/13 09:43:44;;;;;;;39.58;25.02;;;281.90;2278.40;;;;;;5024726;28;20072;-64
2023/12/13 09:46:13;;;;;;;46.80;31.02;;;282.00;2278.40;;;;;;5031536;28;20437;-62
2023/12/13 09:48:40;;;;;;;47.00;31.20;;;282.10;2278.40;;;;;;5013340;28;20026;-64
2023/12/13 09:51:07;;;;;;;42.75;29.13;;;282.10;2278.40;;;;;;5019978;28;20034;-59
2023/12/13 09:53:34;;;;;;;71.78;43.28;;;282.20;2278.40;;;;;;5014215;28;20026;-62
2023/12/13 09:56:02;;;;;;;71.28;41.25;;;282.20;2278.40;;;;;;5016635;28;20025;-61
2023/12/13 09:58:27;;;;;;;69.93;43.55;;;282.10;2278.40;;;;;;5018484;28;20046;-62
2023/12/13 10:00:53;;;;;;;58.20;35.97;;;282.00;2278.40;;;;;;5010168;28;20049;-68
2023/12/13 10:03:19;;;;;;;60.65;33.75;;;281.90;2278.40;;;;;;5014716;28;20057;-62
2023/12/13 10:05:47;;;;;;;44.03;28.73;;;281.90;2278.40;;;;;;5017350;28;20452;-62
2023/12/13 10:08:14;;;;;;;37.65;24.33;;;281.80;2278.40;;;;;;4994104;28;20392;-63
2023/12/13 10:10:42;;;;;;;35.30;22.05;;;281.80;2278.40;;;;;;5019440;28;20025;-64
2023/12/13 10:13:10;;;;;;;32.10;19.63;;;281.80;2278.40;;;;;;5024148;28;20451;-60
2023/12/13 10:15:36;;;;;;;28.98;19.05;;;281.80;2278.40;;;;;;5010975;28;20445;-63
2023/12/13 10:18:02;;;;;;;29.92;19.40;;;281.80;2278.40;;;;;;5004381;28;20069;-61
2023/12/13 10:20:31;;;;;;;29.20;20.13;;;281.80;2278.40;;;;;;4995460;28;20105;-66
2023/12/13 10:22:57;;;;;;;29.83;20.15;;;281.80;2278.40;;;;;;4999453;28;20035;-63
2023/12/13 10:25:23;;;;;;;32.58;22.35;;;281.80;2278.40;;;;;;5013466;28;20026;-65
2023/12/13 10:27:52;;;;;;;34.60;22.50;;;281.90;2278.40;;;;;;5015709;28;20018;-64
2023/12/13 10:30:19;;;;;;;36.83;24.08;;;281.90;2278.40;;;;;;5008034;28;20025;-64
2023/12/13 10:32:44;;;;;;;35.33;22.30;;;282.00;2278.40;;;;;;5013647;28;20025;-67
2023/12/13 10:35:10;;;;;;;41.65;22.83;;;282.00;2278.40;;;;;;5014031;28;20037;-63
2023/12/13 10:37:36;;;;;;;39.10;25.67;;;282.00;2278.40;;;;;;5014606;28;20052;-64
2023/12/13 10:40:04;;;;;;;42.13;27.33;;;282.00;2278.40;;;;;;5018922;28;20088;-69
2023/12/13 10:42:31;;;;;;;39.97;26.88;;;281.80;2278.40;;;;;;5016381;28;20022;-62
2023/12/13 10:44:56;;;;;;;41.33;26.98;;;282.00;2278.40;;;;;;5014999;28;20022;-62
2023/12/13 10:47:24;;;;;;;58.78;35.47;;;282.00;2278.40;;;;;;5009893;28;20041;-63
2023/12/13 10:49:52;;;;;;;48.30;32.10;;;282.00;2278.40;;;;;;5024313;28;20502;-63
2023/12/13 10:52:20;;;;;;;51.22;33.15;;;281.90;2278.40;;;;;;5033100;28;20144;-62
2023/12/13 10:54:52;;;;;;;58.10;34.38;;;281.90;2278.40;;;;;;5010743;28;20434;-64
2023/12/13 10:57:18;;;;;;;56.92;34.22;;;281.80;2278.40;;;;;;5015404;28;20057;-62
2023/12/13 10:59:45;;;;;;;59.47;38.35;;;281.80;2278.40;;;;;;5017462;28;20076;-63
2023/12/13 11:02:14;;;;;;;66.50;39.22;;;281.90;2278.40;;;;;;5029475;28;20025;-62
2023/12/13 11:04:43;;;;;;;66.78;40.03;;;281.80;2278.40;;;;;;5012844;28;20487;-66
2023/12/13 11:07:09;;;;;;;61.00;36.85;;;281.70;2278.40;;;;;;4999553;28;20447;-63
2023/12/13 11:09:35;;;;;;;64.15;38.60;;;281.60;2278.40;;;;;;5010181;28;20026;-62
2023/12/13 11:12:11;;;;;;;59.45;35.60;;;281.70;2278.40;;;;;;5007208;28;20464;-63
2023/12/13 11:14:40;;;;;;;61.80;38.50;;;281.70;2278.40;;;;;;5016155;28;20379;-65
2023/12/13 11:17:06;;;;;;;59.70;37.55;;;281.70;2278.40;;;;;;5023754;28;20030;-63
2023/12/13 11:19:32;;;;;;;63.45;39.45;;;281.80;2278.40;;;;;;4998705;28;20034;-62
2023/12/13 11:21:58;;;;;;;61.65;37.83;;;281.80;2278.40;;;;;;5032873;28;20048;-62
2023/12/13 11:24:26;;;;;;;57.22;35.72;;;281.80;2278.40;;;;;;5029774;28;20029;-63
2023/12/13 11:26:58;;;;;;;51.05;31.30;;;281.80;2278.40;;;;;;5027514;28;20023;-63
2023/12/13 11:29:33;;;;;;;56.40;35.28;;;281.70;2278.40;;;;;;5033457;28;20026;-64
2023/12/13 11:32:01;;;;;;;62.13;38.78;;;281.70;2278.40;;;;;;5031654;28;20060;-63
2023/12/13 11:34:47;;;;;;;56.22;36.50;;;281.60;2278.40;;;;;;5030582;28;20045;-63
2023/12/13 11:37:14;;;;;;;63.75;38.33;;;281.60;2278.40;;;;;;4996501;28;20435;-61
2023/12/13 11:39:42;;;;;;;62.92;37.85;;;281.60;2278.40;;;;;;4995137;28;20359;-64
2023/12/13 11:42:09;;;;;;;64.28;37.80;;;281.60;2278.40;;;;;;5009482;28;20049;-64
2023/12/13 11:44:37;;;;;;;57.78;34.53;;;256.90;2252.80;;;;;;5015409;28;20384;-68
2023/12/13 11:47:06;;;;;;;54.30;32.17;;;281.60;2278.40;;;;;;5016279;28;20525;-65
2023/12/13 11:49:32;;;;;;;46.33;28.58;;;281.60;2278.40;;;;;;5015316;28;20030;-68
2023/12/13 11:51:59;;;;;;;41.10;26.90;;;281.60;2278.40;;;;;;5013191;28;20026;-65
2023/12/13 11:54:25;;;;;;;39.80;24.80;;;281.60;2278.40;;;;;;5010709;28;20041;-65